Time;durP1;ratioP1;P1;durP2;ratioP2;P2;SDS_P1;SDS_P2;PMS_P1;PMS_P2;Temp;Humidity;BMP_temperature;BMP_pressure;BME280_temperature;BME280_humidity;BME280_pressure;Samples;Min_cycle;Max_cycle;Signal;HPM_P1;HPM_P2
2023/06/23 00:00:15;;;;;;;0.00;0.00;;;;;;;17.38;nan;99802.84;4975515;28;20208;-78
2023/06/23 00:02:41;;;;;;;0.10;0.10;;;;;;;17.22;nan;99795.50;4986828;28;20572;-78
2023/06/23 00:05:08;;;;;;;0.57;0.57;;;;;;;17.24;nan;99786.84;4975050;28;20265;-79
2023/06/23 00:07:34;;;;;;;1.13;0.43;;;;;;;17.31;nan;99791.66;4974896;28;20190;-78
2023/06/23 00:10:00;;;;;;;0.10;0.10;;;;;;;17.30;nan;99785.34;4988930;28;20197;-78
2023/06/23 00:12:25;;;;;;;0.43;0.37;;;;;;;17.42;nan;99787.09;4974862;28;20181;-78
2023/06/23 00:14:51;;;;;;;0.00;0.00;;;;;;;17.40;nan;99790.25;4974839;28;20186;-79
2023/06/23 00:17:16;;;;;;;0.00;0.00;;;;;;;17.38;nan;99792.59;4974889;28;20185;-79
2023/06/23 00:19:41;;;;;;;0.00;0.00;;;;;;;17.38;nan;99789.03;4974319;28;20219;-79
2023/06/23 00:22:07;;;;;;;0.00;0.00;;;;;;;17.39;nan;99790.63;4974636;28;20213;-78
2023/06/23 00:24:32;;;;;;;0.00;0.00;;;;;;;17.40;nan;99792.22;4974636;28;20185;-77
2023/06/23 00:26:58;;;;;;;0.10;0.10;;;;;;;17.35;nan;99798.81;4973262;28;20197;-78
2023/06/23 00:29:23;;;;;;;0.13;0.13;;;;;;;17.33;nan;99797.63;4983617;28;20190;-77
2023/06/23 00:31:49;;;;;;;0.10;0.10;;;;;;;17.44;nan;99804.09;4989308;28;20256;-78
2023/06/23 00:34:15;;;;;;;0.00;0.00;;;;;;;17.47;nan;99814.38;4969988;28;20321;-78
2023/06/23 00:36:41;;;;;;;0.00;0.00;;;;;;;17.40;nan;99817.06;4971058;28;20308;-77
2023/06/23 00:39:08;;;;;;;0.00;0.00;;;;;;;17.39;nan;99823.75;4974046;28;20646;-78
2023/06/23 00:41:34;;;;;;;0.47;0.47;;;;;;;17.34;nan;99824.06;4974207;28;20281;-78
2023/06/23 00:43:59;;;;;;;0.00;0.00;;;;;;;17.38;nan;99849.78;4974114;28;20280;-78
2023/06/23 00:46:25;;;;;;;0.00;0.00;;;;;;;17.40;nan;99845.47;4974243;28;20192;-78
2023/06/23 00:48:52;;;;;;;0.00;0.00;;;;;;;17.41;nan;99843.50;4986979;28;20181;-78
2023/06/23 00:51:17;;;;;;;0.00;0.00;;;;;;;17.46;nan;99848.69;4982505;28;20686;-78
2023/06/23 00:53:47;;;;;;;0.00;0.00;;;;;;;17.59;nan;99861.13;4972720;28;20221;-78
2023/06/23 00:56:17;;;;;;;0.00;0.00;;;;;;;17.46;nan;99854.22;4974148;28;20550;-78
2023/06/23 00:58:44;;;;;;;0.00;0.00;;;;;;;17.50;nan;99849.53;4985406;28;20691;-78
2023/06/23 01:01:10;;;;;;;0.00;0.00;;;;;;;17.52;nan;99861.03;4981414;28;20205;-77
2023/06/23 01:03:37;;;;;;;0.00;0.00;;;;;;;17.48;nan;99855.44;4973945;28;20182;-78
2023/06/23 01:06:27;;;;;;;0.00;0.00;;;;;;;17.47;nan;99859.38;4972773;28;20276;-78
2023/06/23 01:09:01;;;;;;;0.00;0.00;;;;;;;17.50;nan;99858.66;4973434;28;20174;-78
2023/06/23 01:11:42;;;;;;;0.00;0.00;;;;;;;17.53;nan;99868.16;4973184;28;20592;-78
2023/06/23 01:14:40;;;;;;;0.10;0.10;;;;;;;17.47;nan;99873.19;4972617;28;20251;-77
2023/06/23 01:17:19;;;;;;;0.53;0.20;;;;;;;17.47;nan;99875.94;4973749;28;20260;-77
2023/06/23 01:20:21;;;;;;;0.40;0.30;;;;;;;17.51;nan;99879.59;4972023;28;20220;-78
2023/06/23 01:23:16;;;;;;;0.00;0.00;;;;;;;17.46;nan;99863.31;4973660;28;20181;-78
2023/06/23 01:26:01;;;;;;;0.03;0.00;;;;;;;17.67;nan;99884.94;4973399;28;20174;-77
2023/06/23 01:28:57;;;;;;;0.60;0.60;;;;;;;17.57;nan;99888.34;4968756;28;20225;-77
2023/06/23 01:31:50;;;;;;;0.00;0.00;;;;;;;17.51;nan;99881.53;4967872;28;20216;-78
2023/06/23 01:34:21;;;;;;;0.47;0.47;;;;;;;17.43;nan;99880.63;4973537;28;20178;-78
2023/06/23 01:36:56;;;;;;;0.43;0.37;;;;;;;17.42;nan;99876.28;4973369;28;20659;-78
2023/06/23 01:39:24;;;;;;;5.40;4.90;;;;;;;17.35;nan;99872.59;4973465;28;20610;-77
2023/06/23 01:42:10;;;;;;;1.43;1.33;;;;;;;17.37;nan;99882.13;4972908;28;20210;-78
2023/06/23 01:44:38;;;;;;;0.97;0.93;;;;;;;17.28;nan;99887.09;4973582;28;20186;-77
2023/06/23 01:47:14;;;;;;;0.50;0.50;;;;;;;17.33;nan;99880.44;4973385;28;20699;-78
2023/06/23 01:49:40;;;;;;;1.50;1.33;;;;;;;17.37;nan;99881.31;4972963;28;20181;-78
2023/06/23 01:52:07;;;;;;;0.93;0.93;;;;;;;17.43;nan;99883.38;4973346;28;20615;-77
2023/06/23 01:54:36;;;;;;;6.47;4.27;;;;;;;17.41;nan;99882.16;4972034;28;20189;-78
2023/06/23 01:57:02;;;;;;;0.20;0.20;;;;;;;17.48;nan;99876.75;4973004;28;20181;-78
2023/06/23 01:59:29;;;;;;;1.87;1.37;;;;;;;17.47;nan;99884.22;4972884;28;20209;-79
2023/06/23 02:01:56;;;;;;;0.47;0.47;;;;;;;17.47;nan;99883.44;4973073;28;20249;-77
2023/06/23 02:04:22;;;;;;;1.50;1.50;;;;;;;17.43;nan;99880.63;4973267;28;20189;-79
2023/06/23 02:06:50;;;;;;;1.50;1.47;;;;;;;17.44;nan;99876.69;4973131;28;20217;-78
2023/06/23 02:09:22;;;;;;;0.67;0.67;;;;;;;17.52;nan;99875.66;4972881;28;20193;-77
2023/06/23 02:11:49;;;;;;;0.47;0.47;;;;;;;17.50;nan;99872.47;4971640;28;20686;-78
2023/06/23 02:14:15;;;;;;;0.57;0.57;;;;;;;17.46;nan;99873.56;4981408;28;20185;-77
2023/06/23 02:16:43;;;;;;;0.00;0.00;;;;;;;17.40;nan;99883.34;4973213;28;20181;-78
2023/06/23 02:19:09;;;;;;;0.00;0.00;;;;;;;17.51;nan;99885.09;4972640;28;20235;-78
2023/06/23 02:21:36;;;;;;;0.10;0.10;;;;;;;17.47;nan;99887.00;4972724;28;20691;-77
2023/06/23 02:24:04;;;;;;;0.23;0.23;;;;;;;17.44;nan;99884.97;4977858;28;20186;-78
2023/06/23 02:26:30;;;;;;;0.27;0.27;;;;;;;17.35;nan;99878.91;4977882;28;20636;-78
2023/06/23 02:28:56;;;;;;;0.00;0.00;;;;;;;17.42;nan;99883.75;4977376;28;20193;-78
2023/06/23 02:31:23;;;;;;;1.27;0.63;;;;;;;17.41;nan;99882.16;4977574;28;20201;-78
2023/06/23 02:33:50;;;;;;;0.00;0.00;;;;;;;17.48;nan;99880.28;4990556;28;20182;-78
2023/06/23 02:36:20;;;;;;;0.10;0.10;;;;;;;17.43;nan;99875.09;4977753;28;20183;-78
2023/06/23 02:38:47;;;;;;;0.03;0.03;;;;;;;17.40;nan;99875.84;4977244;28;20221;-78
2023/06/23 02:41:15;;;;;;;0.97;0.97;;;;;;;17.42;nan;99881.78;4977669;28;20197;-77
2023/06/23 02:43:48;;;;;;;1.40;1.30;;;;;;;17.43;nan;99885.34;4977332;28;20180;-78
2023/06/23 02:46:15;;;;;;;1.60;1.50;;;;;;;17.39;nan;99890.03;4977588;28;20178;-77
2023/06/23 02:48:43;;;;;;;0.87;0.87;;;;;;;17.41;nan;99882.16;4976855;28;20178;-77
2023/06/23 02:51:13;;;;;;;0.53;0.53;;;;;;;17.44;nan;99887.75;4984044;28;20205;-78
2023/06/23 02:53:45;;;;;;;2.53;2.43;;;;;;;17.50;nan;99879.91;4977008;28;20182;-77
2023/06/23 02:56:18;;;;;;;6.43;1.50;;;;;;;17.53;nan;99881.97;4977096;28;20521;-78
2023/06/23 02:58:47;;;;;;;0.50;0.40;;;;;;;17.46;nan;99890.94;4976433;28;20285;-77
2023/06/23 03:01:14;;;;;;;1.03;1.03;;;;;;;17.46;nan;99881.84;4976760;28;20193;-78
2023/06/23 03:03:41;;;;;;;1.50;1.47;;;;;;;17.41;nan;99887.69;4988160;28;20276;-78
2023/06/23 03:06:17;;;;;;;1.53;1.43;;;;;;;17.45;nan;99892.09;4976293;28;20663;-78
2023/06/23 03:08:43;;;;;;;3.77;3.50;;;;;;;17.42;nan;99886.53;4976199;28;20597;-77
2023/06/23 03:11:08;;;;;;;8.10;4.40;;;;;;;17.44;nan;99893.25;4976638;28;20288;-78
2023/06/23 03:13:34;;;;;;;0.60;0.60;;;;;;;17.52;nan;99894.19;4978865;28;20189;-77
2023/06/23 03:16:05;;;;;;;4.07;3.77;;;;;;;17.50;nan;99896.50;4978718;28;20667;-78
2023/06/23 03:18:34;;;;;;;0.47;0.47;;;;;;;17.56;nan;99897.78;4977415;28;20284;-77
2023/06/23 03:21:04;;;;;;;2.90;2.70;;;;;;;17.53;nan;99907.63;4975146;28;20308;-77
2023/06/23 03:23:32;;;;;;;0.10;0.10;;;;;;;17.52;nan;99908.78;4975588;28;20193;-77
2023/06/23 03:25:59;;;;;;;4.33;3.93;;;;;;;17.50;nan;99907.53;4975587;28;20186;-78
2023/06/23 03:28:30;;;;;;;3.73;3.47;;;;;;;17.50;nan;99911.13;4975279;28;20189;-77
2023/06/23 03:31:12;;;;;;;0.20;0.20;;;;;;;17.53;nan;99906.81;4975371;28;20205;-78
2023/06/23 03:33:42;;;;;;;1.33;1.33;;;;;;;17.54;nan;99911.97;4973732;28;20208;-77
2023/06/23 03:36:12;;;;;;;1.53;1.53;;;;;;;17.56;nan;99911.59;4975428;28;20179;-77
2023/06/23 03:38:49;;;;;;;4.67;4.37;;;;;;;17.52;nan;99913.53;4975138;28;20300;-77
2023/06/23 03:41:14;;;;;;;5.90;3.20;;;;;;;17.57;nan;99923.44;4968520;28;20205;-77
2023/06/23 03:43:48;;;;;;;2.90;2.70;;;;;;;17.58;nan;99925.03;4986954;28;20549;-77
2023/06/23 03:46:31;;;;;;;2.37;2.27;;;;;;;17.55;nan;99915.53;4968616;28;20264;-77
2023/06/23 03:49:00;;;;;;;0.40;0.40;;;;;;;17.55;nan;99916.34;4975004;28;20218;-77
2023/06/23 03:51:28;;;;;;;4.43;4.03;;;;;;;17.50;nan;99929.63;4975146;28;20212;-77
2023/06/23 03:53:57;;;;;;;4.00;3.80;;;;;;;17.53;nan;99928.91;4973882;28;20194;-77
2023/06/23 03:56:24;;;;;;;3.27;3.03;;;;;;;17.44;nan;99931.94;4984437;28;20277;-77
2023/06/23 03:58:50;;;;;;;6.20;5.70;;;;;;;17.41;nan;99926.34;4974725;28;20217;-77
2023/06/23 04:01:18;;;;;;;2.17;2.07;;;;;;;17.40;nan;99930.28;4974890;28;20288;-77
2023/06/23 04:03:44;;;;;;;3.83;3.63;;;;;;;17.39;nan;99929.50;4974956;28;20177;-77
2023/06/23 04:06:12;;;;;;;3.67;3.47;;;;;;;17.47;nan;99936.72;4974857;28;20585;-77
2023/06/23 04:08:39;;;;;;;0.30;0.30;;;;;;;17.41;nan;99948.44;4985917;28;20224;-77
2023/06/23 04:11:06;;;;;;;3.73;3.53;;;;;;;17.52;nan;99950.22;4974662;28;20209;-77
2023/06/23 04:13:33;;;;;;;2.93;2.73;;;;;;;17.50;nan;99954.50;4974766;28;20313;-77
2023/06/23 04:16:01;;;;;;;0.70;0.70;;;;;;;17.54;nan;99958.13;4974672;28;20254;-77
2023/06/23 04:18:29;;;;;;;1.97;1.80;;;;;;;17.51;nan;99969.94;4974382;28;20349;-77
2023/06/23 04:20:57;;;;;;;3.50;3.27;;;;;;;17.49;nan;99973.03;4974432;28;20673;-77
2023/06/23 04:23:24;;;;;;;2.27;2.17;;;;;;;17.52;nan;99972.31;4974604;28;20178;-77
2023/06/23 04:25:51;;;;;;;0.33;0.33;;;;;;;17.49;nan;99977.75;4974535;28;20177;-77
2023/06/23 04:28:22;;;;;;;1.23;1.20;;;;;;;17.42;nan;99991.47;4974121;28;20178;-77
2023/06/23 04:30:48;;;;;;;0.50;0.50;;;;;;;17.47;nan;99985.63;4974354;28;20260;-77
2023/06/23 04:33:14;;;;;;;1.23;0.93;;;;;;;17.39;nan;99987.50;4974330;28;20186;-77
2023/06/23 04:35:39;;;;;;;1.10;1.07;;;;;;;17.45;nan;99996.25;4974376;28;20285;-77
2023/06/23 04:38:14;;;;;;;1.50;1.43;;;;;;;17.33;nan;99991.69;4974188;28;20208;-77
2023/06/23 04:40:48;;;;;;;1.50;1.50;;;;;;;17.34;nan;99998.03;4974192;28;20197;-77
2023/06/23 04:43:23;;;;;;;0.73;0.67;;;;;;;17.33;nan;100002.75;4974634;28;20739;-77
2023/06/23 04:45:57;;;;;;;0.20;0.20;;;;;;;17.51;nan;100005.84;4973227;28;20181;-78
2023/06/23 04:48:26;;;;;;;2.00;1.87;;;;;;;17.36;nan;100015.03;4973875;28;20178;-78
2023/06/23 04:50:55;;;;;;;0.83;0.83;;;;;;;17.33;nan;100008.28;4974056;28;20587;-77
2023/06/23 04:53:25;;;;;;;0.30;0.30;;;;;;;17.30;nan;100005.44;4974334;28;20741;-77
2023/06/23 04:55:56;;;;;;;1.93;1.83;;;;;;;17.34;nan;100014.59;4974416;28;20181;-78
2023/06/23 04:58:25;;;;;;;4.03;3.73;;;;;;;17.25;nan;100017.59;4973547;28;20201;-78
2023/06/23 05:00:51;;;;;;;0.40;0.40;;;;;;;17.22;nan;100019.16;4973727;28;20202;-78
2023/06/23 05:03:19;;;;;;;1.50;1.50;;;;;;;17.19;nan;100019.84;4974258;28;20178;-78
2023/06/23 05:05:46;;;;;;;1.93;1.83;;;;;;;17.09;nan;100031.50;4986016;28;20651;-78
2023/06/23 05:08:13;;;;;;;1.47;1.37;;;;;;;17.10;nan;100029.56;4973906;28;20204;-79
2023/06/23 05:10:40;;;;;;;1.97;1.87;;;;;;;17.00;nan;100033.69;4973692;28;20202;-78
2023/06/23 05:13:08;;;;;;;1.83;1.73;;;;;;;17.03;nan;100038.47;4972527;28;20707;-78
2023/06/23 05:15:33;;;;;;;5.07;4.67;;;;;;;16.97;nan;100044.66;4973740;28;20267;-78
2023/06/23 05:18:00;;;;;;;3.70;3.43;;;;;;;16.86;nan;100056.28;4973428;28;20229;-78
2023/06/23 05:20:27;;;;;;;1.27;0.83;;;;;;;16.92;nan;100059.53;4973264;28;20202;-79
2023/06/23 05:22:57;;;;;;;0.47;0.47;;;;;;;16.88;nan;100066.97;4973580;28;20543;-78
2023/06/23 05:25:29;;;;;;;3.37;3.17;;;;;;;16.94;nan;100069.09;4973847;28;20205;-79
2023/06/23 05:27:59;;;;;;;1.90;1.70;;;;;;;16.79;nan;100078.22;4986879;28;20178;-78
2023/06/23 05:30:26;;;;;;;3.57;3.33;;;;;;;16.70;nan;100074.06;4973041;28;20213;-78
2023/06/23 05:32:52;;;;;;;6.37;5.90;;;;;;;16.70;nan;100080.38;4972091;28;20496;-78
2023/06/23 05:35:20;;;;;;;2.97;2.77;;;;;;;16.70;nan;100088.66;4973395;28;20655;-79
2023/06/23 05:37:46;;;;;;;1.33;1.13;;;;;;;16.66;nan;100085.00;4971834;28;20182;-78
2023/06/23 05:40:13;;;;;;;3.10;2.53;;;;;;;16.67;nan;100081.13;4972992;28;20192;-78
2023/06/23 05:42:39;;;;;;;5.70;5.30;;;;;;;16.58;nan;100080.47;4973247;28;20199;-78
2023/06/23 05:45:05;;;;;;;0.50;0.50;;;;;;;16.62;nan;100086.88;4973101;28;20194;-78
2023/06/23 05:47:40;;;;;;;4.53;4.23;;;;;;;16.68;nan;100092.94;4973093;28;20528;-78
2023/06/23 05:50:15;;;;;;;4.37;4.07;;;;;;;16.53;nan;100087.09;4972813;28;20181;-78
2023/06/23 05:52:49;;;;;;;1.83;1.73;;;;;;;16.54;nan;100098.91;4973083;28;20187;-78
2023/06/23 05:55:16;;;;;;;2.13;2.03;;;;;;;16.57;nan;100098.19;4973092;28;20177;-78
2023/06/23 05:57:42;;;;;;;0.10;0.10;;;;;;;16.64;nan;100110.19;4972741;28;20177;-79
2023/06/23 06:00:10;;;;;;;1.30;1.20;;;;;;;16.54;nan;100120.97;4972660;28;20643;-79
2023/06/23 06:02:39;;;;;;;1.67;1.57;;;;;;;16.46;nan;100125.50;4973400;28;20595;-79
2023/06/23 06:05:07;;;;;;;0.73;0.73;;;;;;;16.46;nan;100144.03;4972949;28;20186;-78
2023/06/23 06:07:34;;;;;;;1.37;1.03;;;;;;;16.37;nan;100146.97;4972997;28;20236;-78
2023/06/23 06:10:02;;;;;;;1.53;1.43;;;;;;;16.40;nan;100157.28;4972641;28;20173;-77
2023/06/23 06:12:29;;;;;;;0.00;0.00;;;;;;;16.41;nan;100164.41;4973000;28;20260;-78
2023/06/23 06:14:57;;;;;;;1.57;1.47;;;;;;;16.27;nan;100169.56;4972786;28;20189;-78
2023/06/23 06:17:24;;;;;;;0.37;0.37;;;;;;;16.29;nan;100183.78;4982044;28;20197;-79
2023/06/23 06:19:52;;;;;;;1.50;1.40;;;;;;;16.17;nan;100192.94;4972439;28;20205;-78
2023/06/23 06:22:19;;;;;;;1.07;1.07;;;;;;;16.07;nan;100207.28;4972866;28;20205;-79
2023/06/23 06:24:46;;;;;;;0.50;0.50;;;;;;;16.09;nan;100210.47;4972891;28;20204;-78
2023/06/23 06:27:14;;;;;;;0.63;0.63;;;;;;;15.99;nan;100227.53;4971601;28;20181;-78
2023/06/23 06:29:41;;;;;;;0.63;0.63;;;;;;;15.89;nan;100233.53;4983975;28;20193;-78
2023/06/23 06:32:08;;;;;;;0.47;0.47;;;;;;;15.90;nan;100240.66;4964873;28;20209;-77
2023/06/23 06:34:35;;;;;;;0.77;0.77;;;;;;;15.88;nan;100252.03;4983517;28;20540;-77
2023/06/23 06:37:01;;;;;;;0.00;0.00;;;;;;;15.83;nan;100262.50;4972687;28;20763;-77
2023/06/23 06:39:28;;;;;;;1.13;1.13;;;;;;;15.77;nan;100270.22;4972401;28;20216;-78
2023/06/23 06:41:56;;;;;;;2.13;2.03;;;;;;;15.68;nan;100278.63;4972536;28;20202;-77
2023/06/23 06:44:21;;;;;;;0.37;0.37;;;;;;;15.64;nan;100282.44;4973156;28;20182;-78
2023/06/23 06:46:49;;;;;;;0.63;0.63;;;;;;;15.54;nan;100302.16;4973083;28;20193;-78
2023/06/23 06:49:18;;;;;;;2.37;2.20;;;;;;;15.38;nan;100308.41;4973003;28;20189;-78
2023/06/23 06:51:44;;;;;;;3.03;2.83;;;;;;;15.34;nan;100313.00;4972545;28;20564;-77
2023/06/23 06:54:10;;;;;;;1.33;1.23;;;;;;;15.44;nan;100329.03;4971499;28;20647;-79
2023/06/23 06:56:35;;;;;;;1.80;1.70;;;;;;;15.42;nan;100331.31;4973004;28;20192;-78
2023/06/23 06:59:01;;;;;;;2.90;2.70;;;;;;;15.49;nan;100347.28;4972269;28;20209;-77
2023/06/23 07:01:27;;;;;;;1.60;1.50;;;;;;;15.52;nan;100363.09;4973179;28;20209;-78
2023/06/23 07:03:55;;;;;;;0.90;0.90;;;;;;;15.60;nan;100375.94;4972873;28;20687;-78
2023/06/23 07:06:20;;;;;;;1.73;1.63;;;;;;;15.50;nan;100381.91;4972840;28;20264;-78
2023/06/23 07:08:45;;;;;;;1.83;1.70;;;;;;;15.55;nan;100398.19;4974293;28;20574;-77
2023/06/23 07:11:13;;;;;;;0.30;0.30;;;;;;;15.52;nan;100395.34;4976567;28;20205;-78
2023/06/23 07:13:38;;;;;;;0.87;0.80;;;;;;;15.54;nan;100404.84;4976684;28;20532;-78
2023/06/23 07:16:04;;;;;;;1.27;1.00;;;;;;;15.59;nan;100415.66;4976711;28;20212;-79
2023/06/23 07:18:29;;;;;;;0.50;0.50;;;;;;;15.62;nan;100419.66;4976774;28;20236;-78
2023/06/23 07:20:54;;;;;;;0.00;0.00;;;;;;;15.61;nan;100429.88;4990319;28;20208;-78
2023/06/23 07:23:20;;;;;;;0.93;0.93;;;;;;;15.60;nan;100430.22;4978310;28;20186;-78
2023/06/23 07:25:45;;;;;;;0.40;0.40;;;;;;;15.53;nan;100441.00;4977699;28;20189;-79
2023/06/23 07:28:10;;;;;;;4.17;3.87;;;;;;;15.42;nan;100446.97;4976021;28;20189;-79
2023/06/23 07:30:39;;;;;;;1.43;1.33;;;;;;;15.34;nan;100450.66;4978030;28;20325;-78
2023/06/23 07:33:05;;;;;;;1.13;1.13;;;;;;;15.26;nan;100451.53;4977489;28;20181;-78
2023/06/23 07:35:30;;;;;;;1.67;1.57;;;;;;;15.29;nan;100459.09;4977455;28;20599;-78
2023/06/23 07:37:55;;;;;;;1.60;1.50;;;;;;;15.26;nan;100459.81;4977354;28;20596;-79
2023/06/23 07:40:21;;;;;;;0.40;0.27;;;;;;;15.26;nan;100467.25;4976339;28;20208;-79
2023/06/23 07:42:46;;;;;;;0.20;0.20;;;;;;;15.31;nan;100472.53;4974750;28;20182;-79
2023/06/23 07:45:11;;;;;;;2.23;2.03;;;;;;;15.15;nan;100477.91;4976631;28;20209;-78
2023/06/23 07:47:37;;;;;;;0.50;0.50;;;;;;;15.10;nan;100484.44;4976242;28;20228;-78
2023/06/23 07:50:02;;;;;;;2.00;1.80;;;;;;;15.07;nan;100492.56;4976167;28;20185;-78
2023/06/23 07:52:28;;;;;;;3.23;3.00;;;;;;;15.10;nan;100480.88;4976065;28;20190;-78
2023/06/23 07:54:54;;;;;;;1.30;1.00;;;;;;;15.11;nan;100488.78;4975888;28;20760;-78
2023/06/23 07:57:21;;;;;;;1.47;1.33;;;;;;;15.14;nan;100490.84;4976088;28;20185;-78
2023/06/23 07:59:47;;;;;;;3.53;3.23;;;;;;;15.11;nan;100501.75;4976095;28;20216;-78
2023/06/23 08:02:12;;;;;;;0.57;0.57;;;;;;;15.20;nan;100493.41;4976133;28;20210;-78
2023/06/23 08:04:38;;;;;;;1.70;1.60;;;;;;;15.21;nan;100504.06;4976042;28;20193;-78
2023/06/23 08:07:03;;;;;;;2.07;1.70;;;;;;;15.23;nan;100509.22;4991509;28;20193;-79
2023/06/23 08:09:28;;;;;;;2.27;1.67;;;;;;;15.26;nan;100520.34;4974770;28;20639;-79
2023/06/23 08:11:54;;;;;;;1.83;1.73;;;;;;;15.23;nan;100526.56;4975441;28;20213;-79
2023/06/23 08:14:19;;;;;;;0.37;0.37;;;;;;;15.29;nan;100527.13;4975685;28;20189;-79
2023/06/23 08:16:44;;;;;;;0.33;0.33;;;;;;;15.32;nan;100523.69;4975701;28;20186;-79
2023/06/23 08:19:10;;;;;;;1.93;1.80;;;;;;;15.36;nan;100535.66;4976424;28;20577;-78
2023/06/23 08:21:35;;;;;;;2.13;1.93;;;;;;;15.34;nan;100544.25;4976017;28;20206;-78
2023/06/23 08:24:01;;;;;;;0.30;0.20;;;;;;;15.40;nan;100545.63;4975997;28;20190;-77
2023/06/23 08:26:26;;;;;;;0.10;0.10;;;;;;;15.35;nan;100554.09;4976200;28;20189;-78
2023/06/23 08:28:52;;;;;;;4.73;4.33;;;;;;;15.33;nan;100552.81;4975987;28;20660;-77
2023/06/23 08:31:17;;;;;;;1.27;1.27;;;;;;;15.35;nan;100556.06;4976329;28;20567;-78
2023/06/23 08:33:43;;;;;;;0.43;0.43;;;;;;;15.41;nan;100574.75;4975773;28;20612;-77
2023/06/23 08:36:08;;;;;;;0.63;0.63;;;;;;;15.37;nan;100593.13;4983276;28;20711;-77
2023/06/23 08:38:33;;;;;;;3.30;3.03;;;;;;;15.32;nan;100590.56;4976255;28;20289;-77
2023/06/23 08:40:59;;;;;;;0.00;0.00;;;;;;;15.46;nan;100602.06;4976178;28;20726;-77
2023/06/23 08:43:27;;;;;;;0.57;0.57;;;;;;;15.49;nan;100606.13;4976227;28;20639;-77
2023/06/23 08:45:58;;;;;;;3.50;3.20;;;;;;;15.47;nan;100609.19;4975498;28;20182;-76
2023/06/23 08:48:29;;;;;;;0.10;0.10;;;;;;;15.59;nan;100613.13;4975147;28;20231;-77
2023/06/23 08:50:59;;;;;;;0.00;0.00;;;;;;;15.64;nan;100619.25;4975113;28;20212;-77
2023/06/23 08:53:25;;;;;;;1.57;1.47;;;;;;;15.62;nan;100627.06;4975231;28;20688;-77
2023/06/23 08:55:52;;;;;;;1.53;1.47;;;;;;;15.59;nan;100637.91;4975077;28;20261;-77
2023/06/23 08:58:21;;;;;;;1.23;1.23;;;;;;;15.59;nan;100648.94;4974978;28;20210;-77
2023/06/23 09:00:51;;;;;;;1.30;1.20;;;;;;;15.63;nan;100644.41;4974961;28;20292;-77
2023/06/23 09:03:18;;;;;;;1.13;1.13;;;;;;;15.56;nan;100650.41;4975392;28;20181;-77
2023/06/23 09:05:43;;;;;;;1.17;1.17;;;;;;;15.61;nan;100660.44;4974791;28;20185;-77
2023/06/23 09:08:10;;;;;;;1.20;1.20;;;;;;;15.57;nan;100662.22;4974482;28;20285;-76
2023/06/23 09:10:36;;;;;;;2.07;1.97;;;;;;;15.56;nan;100661.44;4974758;28;20221;-77
2023/06/23 09:13:07;;;;;;;0.00;0.00;;;;;;;15.57;nan;100668.53;4974920;28;20189;-77
2023/06/23 09:15:37;;;;;;;0.77;0.77;;;;;;;15.58;nan;100674.84;4985323;28;20189;-77
2023/06/23 09:18:03;;;;;;;1.80;1.60;;;;;;;15.52;nan;100685.28;4974846;28;20211;-77
2023/06/23 09:20:31;;;;;;;0.00;0.00;;;;;;;15.56;nan;100690.91;4974658;28;20686;-77
2023/06/23 09:22:58;;;;;;;0.00;0.00;;;;;;;15.60;nan;100692.69;4974494;28;20632;-77
2023/06/23 09:25:44;;;;;;;0.83;0.83;;;;;;;15.55;nan;100695.63;4976355;28;20734;-77
2023/06/23 09:28:38;;;;;;;2.10;2.00;;;;;;;15.57;nan;100700.78;4975845;28;20182;-77
2023/06/23 09:31:12;;;;;;;3.37;3.03;;;;;;;15.58;nan;100711.47;4975544;28;20606;-78
2023/06/23 09:33:52;;;;;;;0.20;0.20;;;;;;;15.73;nan;100708.09;4987748;28;20280;-77
2023/06/23 09:36:18;;;;;;;0.40;0.40;;;;;;;15.59;nan;100713.09;4969688;28;20189;-77
2023/06/23 09:38:45;;;;;;;0.17;0.17;;;;;;;15.59;nan;100724.13;4974964;28;20263;-77
2023/06/23 09:41:13;;;;;;;3.07;2.87;;;;;;;15.55;nan;100731.44;4976040;28;20225;-77
2023/06/23 09:43:47;;;;;;;2.97;2.77;;;;;;;15.55;nan;100731.44;4974741;28;20240;-77
2023/06/23 09:46:15;;;;;;;0.67;0.67;;;;;;;15.61;nan;100732.84;4975323;28;20313;-77
2023/06/23 09:48:43;;;;;;;1.97;1.87;;;;;;;15.51;nan;100749.78;4985384;28;20208;-77
2023/06/23 09:51:08;;;;;;;0.57;0.57;;;;;;;15.53;nan;100752.19;4966292;28;20263;-77
2023/06/23 09:53:35;;;;;;;0.00;0.00;;;;;;;15.69;nan;100758.72;4984635;28;20194;-77
2023/06/23 09:56:03;;;;;;;7.90;1.90;;;;;;;15.63;nan;100760.09;4974053;28;20544;-78
2023/06/23 09:58:35;;;;;;;0.27;0.10;;;;;;;15.67;nan;100767.31;4973495;28;20216;-77
2023/06/23 10:01:15;;;;;;;1.00;1.00;;;;;;;15.62;nan;100766.72;4973727;28;20213;-77
2023/06/23 10:03:52;;;;;;;0.20;0.20;;;;;;;15.68;nan;100776.38;4973584;28;20185;-76
2023/06/23 10:06:25;;;;;;;0.00;0.00;;;;;;;15.65;nan;100780.63;4991581;23;20216;-82
2023/06/23 10:08:55;;;;;;;0.77;0.77;;;;;;;15.65;nan;100788.91;4994785;28;20253;-82
2023/06/23 10:11:32;;;;;;;0.00;0.00;;;;;;;15.81;nan;100796.53;4994418;28;20223;-81
2023/06/23 10:14:01;;;;;;;0.10;0.10;;;;;;;15.97;nan;100790.06;4994577;28;20195;-82
2023/06/23 10:16:27;;;;;;;0.00;0.00;;;;;;;15.94;nan;100801.75;4993309;28;20606;-82
2023/06/23 10:18:52;;;;;;;0.00;0.00;;;;;;;15.97;nan;100797.53;4993707;28;20288;-81
2023/06/23 10:21:18;;;;;;;0.00;0.00;;;;;;;15.95;nan;100808.09;4994019;28;20205;-81
2023/06/23 10:23:45;;;;;;;0.43;0.43;;;;;;;15.99;nan;100809.81;4992973;28;20276;-81
2023/06/23 10:26:12;;;;;;;1.10;1.00;;;;;;;16.03;nan;100805.22;4993962;28;20232;-81
2023/06/23 10:28:43;;;;;;;0.43;0.43;;;;;;;16.08;nan;100812.50;4992423;28;20264;-81
2023/06/23 10:31:08;;;;;;;5.30;0.93;;;;;;;16.08;nan;100818.00;4991946;28;20260;-81
2023/06/23 10:33:36;;;;;;;0.03;0.00;;;;;;;16.22;nan;100820.47;4992406;28;20201;-81
2023/06/23 10:36:06;;;;;;;1.17;1.17;;;;;;;16.13;nan;100830.75;4993107;28;20189;-81
2023/06/23 10:38:32;;;;;;;0.97;0.87;;;;;;;16.12;nan;100816.19;4992932;28;20239;-82
2023/06/23 10:41:00;;;;;;;2.50;1.67;;;;;;;16.27;nan;100828.50;4993356;28;20213;-80
2023/06/23 10:43:31;;;;;;;0.00;0.00;;;;;;;16.28;nan;100819.91;4996332;28;20607;-81
2023/06/23 10:45:57;;;;;;;0.60;0.60;;;;;;;16.30;nan;100817.59;5014357;28;20189;-81
2023/06/23 10:48:24;;;;;;;2.53;2.53;;;;;;;16.22;nan;100820.47;4999209;28;20177;-82
2023/06/23 10:50:51;;;;;;;0.00;0.00;;;;;;;16.25;nan;100828.06;4997345;28;20204;-81
2023/06/23 10:53:18;;;;;;;2.83;2.40;;;;;;;16.22;nan;100834.25;4999075;28;20181;-81
2023/06/23 10:55:46;;;;;;;0.27;0.27;;;;;;;16.20;nan;100825.50;4999582;28;20192;-81
2023/06/23 10:58:16;;;;;;;0.10;0.10;;;;;;;16.23;nan;100833.09;4993340;28;20186;-80
2023/06/23 11:00:54;;;;;;;3.17;1.70;;;;;;;16.10;nan;100835.00;4997263;28;20205;-82
2023/06/23 11:03:28;;;;;;;2.00;1.87;;;;;;;16.17;nan;100832.50;4998413;28;20177;-80
2023/06/23 11:05:55;;;;;;;0.20;0.20;;;;;;;16.17;nan;100845.47;4998637;28;20228;-81
2023/06/23 11:08:28;;;;;;;0.67;0.67;;;;;;;16.18;nan;100847.88;4996888;28;20193;-80
2023/06/23 11:10:59;;;;;;;0.90;0.80;;;;;;;16.20;nan;100847.53;4997407;28;20673;-81
2023/06/23 11:13:34;;;;;;;2.00;1.50;;;;;;;16.22;nan;100846.09;4998744;28;20181;-81
2023/06/23 11:16:00;;;;;;;1.97;1.70;;;;;;;16.21;nan;100851.94;4998308;28;20271;-81
2023/06/23 11:18:26;;;;;;;0.40;0.40;;;;;;;16.23;nan;100849.66;4998380;28;20240;-81
2023/06/23 11:20:52;;;;;;;0.93;0.93;;;;;;;16.25;nan;100855.63;4998274;28;20231;-81
2023/06/23 11:23:18;;;;;;;2.23;2.13;;;;;;;16.31;nan;100868.03;4993918;28;20272;-81
2023/06/23 11:25:47;;;;;;;1.20;1.07;;;;;;;16.36;nan;100881.63;4994808;28;20193;-81
2023/06/23 11:28:35;;;;;;;2.73;2.53;;;;;;;16.34;nan;100870.91;4996419;28;20188;-81
2023/06/23 11:31:13;;;;;;;2.03;1.93;;;;;;;16.41;nan;100875.09;4998003;28;20288;-81
2023/06/23 11:33:44;;;;;;;0.70;0.60;;;;;;;16.39;nan;100874.63;4998152;28;20189;-80
2023/06/23 11:36:20;;;;;;;0.80;0.80;;;;;;;16.48;nan;100884.41;4993049;28;20280;-82
2023/06/23 11:38:45;;;;;;;2.13;2.03;;;;;;;16.48;nan;100872.56;4993364;28;20213;-82
2023/06/23 11:41:23;;;;;;;2.30;2.20;;;;;;;16.53;nan;100880.66;4996374;28;20636;-81
2023/06/23 11:43:48;;;;;;;3.13;2.00;;;;;;;16.49;nan;100891.56;4997819;28;20192;-81
2023/06/23 11:46:15;;;;;;;2.80;2.57;;;;;;;16.58;nan;100894.22;4997601;28;20181;-81
2023/06/23 11:48:41;;;;;;;3.70;3.40;;;;;;;16.67;nan;100900.50;4997602;28;20216;-81
2023/06/23 11:51:13;;;;;;;0.57;0.57;;;;;;;16.72;nan;100905.78;4997447;28;20204;-81